sensor_id;sensor_type;location;lat;lon;timestamp;P1;durP1;ratioP1;P2;durP2;ratioP2
35644;SDS011;21764;52.042;6.830;2024-02-26T00:02:37;11.13;;;6.05;;
35644;SDS011;21764;52.042;6.830;2024-02-26T00:07:39;8.07;;;5.90;;
35644;SDS011;21764;52.042;6.830;2024-02-26T00:12:41;9.13;;;6.03;;
35644;SDS011;21764;52.042;6.830;2024-02-26T00:17:42;9.85;;;5.93;;
35644;SDS011;21764;52.042;6.830;2024-02-26T00:22:43;6.63;;;4.13;;
35644;SDS011;21764;52.042;6.830;2024-02-26T00:27:44;8.15;;;5.25;;
35644;SDS011;21764;52.042;6.830;2024-02-26T00:32:45;11.23;;;5.57;;
35644;SDS011;21764;52.042;6.830;2024-02-26T00:37:46;10.40;;;5.40;;
35644;SDS011;21764;52.042;6.830;2024-02-26T00:42:47;8.80;;;5.72;;
35644;SDS011;21764;52.042;6.830;2024-02-26T00:47:48;16.52;;;5.50;;
35644;SDS011;21764;52.042;6.830;2024-02-26T00:52:49;8.77;;;5.80;;
35644;SDS011;21764;52.042;6.830;2024-02-26T00:57:51;9.77;;;6.05;;
35644;SDS011;21764;52.042;6.830;2024-02-26T01:02:52;10.38;;;5.60;;
35644;SDS011;21764;52.042;6.830;2024-02-26T01:07:53;13.93;;;5.85;;
35644;SDS011;21764;52.042;6.830;2024-02-26T01:12:54;13.32;;;5.70;;
35644;SDS011;21764;52.042;6.830;2024-02-26T01:17:55;9.48;;;5.72;;
35644;SDS011;21764;52.042;6.830;2024-02-26T01:22:56;11.23;;;5.90;;
35644;SDS011;21764;52.042;6.830;2024-02-26T01:27:57;8.57;;;6.13;;
35644;SDS011;21764;52.042;6.830;2024-02-26T01:32:58;13.00;;;5.90;;
35644;SDS011;21764;52.042;6.830;2024-02-26T01:37:59;7.70;;;5.32;;
35644;SDS011;21764;52.042;6.830;2024-02-26T01:43:00;8.63;;;4.75;;
35644;SDS011;21764;52.042;6.830;2024-02-26T01:48:01;8.60;;;5.28;;
35644;SDS011;21764;52.042;6.830;2024-02-26T01:53:02;9.30;;;4.72;;
35644;SDS011;21764;52.042;6.830;2024-02-26T01:58:04;7.32;;;5.13;;
35644;SDS011;21764;52.042;6.830;2024-02-26T02:03:06;7.45;;;4.32;;
35644;SDS011;21764;52.042;6.830;2024-02-26T02:08:07;8.93;;;4.07;;
35644;SDS011;21764;52.042;6.830;2024-02-26T02:13:08;7.68;;;4.53;;
35644;SDS011;21764;52.042;6.830;2024-02-26T02:18:09;7.40;;;4.93;;
35644;SDS011;21764;52.042;6.830;2024-02-26T02:23:11;7.85;;;5.30;;
35644;SDS011;21764;52.042;6.830;2024-02-26T02:28:12;6.00;;;5.03;;
35644;SDS011;21764;52.042;6.830;2024-02-26T02:33:13;7.90;;;5.05;;
35644;SDS011;21764;52.042;6.830;2024-02-26T02:38:15;11.93;;;5.20;;
35644;SDS011;21764;52.042;6.830;2024-02-26T02:43:16;6.35;;;4.60;;
35644;SDS011;21764;52.042;6.830;2024-02-26T02:48:17;7.95;;;4.18;;
35644;SDS011;21764;52.042;6.830;2024-02-26T02:53:18;7.63;;;4.50;;
35644;SDS011;21764;52.042;6.830;2024-02-26T02:58:19;9.40;;;4.40;;
35644;SDS011;21764;52.042;6.830;2024-02-26T03:03:20;6.20;;;4.32;;
35644;SDS011;21764;52.042;6.830;2024-02-26T03:08:24;6.75;;;4.40;;
35644;SDS011;21764;52.042;6.830;2024-02-26T03:13:25;8.70;;;4.55;;
35644;SDS011;21764;52.042;6.830;2024-02-26T03:18:26;7.40;;;5.05;;
35644;SDS011;21764;52.042;6.830;2024-02-26T03:23:27;7.25;;;4.80;;
35644;SDS011;21764;52.042;6.830;2024-02-26T03:28:31;6.85;;;5.20;;
35644;SDS011;21764;52.042;6.830;2024-02-26T03:33:36;7.80;;;5.07;;
35644;SDS011;21764;52.042;6.830;2024-02-26T03:38:37;10.38;;;5.53;;
35644;SDS011;21764;52.042;6.830;2024-02-26T03:43:39;9.43;;;5.78;;
35644;SDS011;21764;52.042;6.830;2024-02-26T03:48:43;9.30;;;5.78;;
35644;SDS011;21764;52.042;6.830;2024-02-26T03:53:44;7.30;;;5.43;;
35644;SDS011;21764;52.042;6.830;2024-02-26T03:58:45;8.02;;;5.55;;
35644;SDS011;21764;52.042;6.830;2024-02-26T04:03:46;7.97;;;5.07;;
35644;SDS011;21764;52.042;6.830;2024-02-26T04:08:47;9.50;;;5.95;;
35644;SDS011;21764;52.042;6.830;2024-02-26T04:13:48;9.95;;;6.05;;
35644;SDS011;21764;52.042;6.830;2024-02-26T04:18:52;9.23;;;6.50;;
35644;SDS011;21764;52.042;6.830;2024-02-26T04:23:54;9.23;;;6.43;;
35644;SDS011;21764;52.042;6.830;2024-02-26T04:28:55;7.65;;;4.57;;
35644;SDS011;21764;52.042;6.830;2024-02-26T04:33:56;9.48;;;5.82;;
35644;SDS011;21764;52.042;6.830;2024-02-26T04:38:57;8.77;;;6.28;;
35644;SDS011;21764;52.042;6.830;2024-02-26T04:43:59;11.13;;;6.72;;
35644;SDS011;21764;52.042;6.830;2024-02-26T04:49:00;8.50;;;5.75;;
35644;SDS011;21764;52.042;6.830;2024-02-26T04:54:01;12.77;;;7.55;;
35644;SDS011;21764;52.042;6.830;2024-02-26T04:59:02;12.50;;;6.35;;
35644;SDS011;21764;52.042;6.830;2024-02-26T05:04:03;9.98;;;6.25;;
35644;SDS011;21764;52.042;6.830;2024-02-26T05:09:04;9.48;;;6.65;;
35644;SDS011;21764;52.042;6.830;2024-02-26T05:14:05;9.05;;;6.40;;
35644;SDS011;21764;52.042;6.830;2024-02-26T05:19:06;9.80;;;6.70;;
35644;SDS011;21764;52.042;6.830;2024-02-26T05:24:07;10.73;;;5.82;;
35644;SDS011;21764;52.042;6.830;2024-02-26T05:29:08;8.95;;;6.22;;
35644;SDS011;21764;52.042;6.830;2024-02-26T05:34:09;10.23;;;6.57;;
35644;SDS011;21764;52.042;6.830;2024-02-26T05:39:11;9.23;;;7.13;;
35644;SDS011;21764;52.042;6.830;2024-02-26T05:44:12;14.68;;;6.68;;
35644;SDS011;21764;52.042;6.830;2024-02-26T05:49:14;10.10;;;6.57;;
35644;SDS011;21764;52.042;6.830;2024-02-26T05:54:15;10.95;;;6.78;;
35644;SDS011;21764;52.042;6.830;2024-02-26T05:59:16;11.13;;;7.35;;
35644;SDS011;21764;52.042;6.830;2024-02-26T06:04:17;8.38;;;5.65;;
35644;SDS011;21764;52.042;6.830;2024-02-26T06:09:18;9.43;;;6.03;;
35644;SDS011;21764;52.042;6.830;2024-02-26T06:14:20;8.98;;;5.95;;
35644;SDS011;21764;52.042;6.830;2024-02-26T06:19:21;8.98;;;6.20;;
35644;SDS011;21764;52.042;6.830;2024-02-26T06:24:22;6.82;;;4.65;;
35644;SDS011;21764;52.042;6.830;2024-02-26T06:29:25;6.20;;;5.25;;
35644;SDS011;21764;52.042;6.830;2024-02-26T06:34:26;7.65;;;5.40;;
35644;SDS011;21764;52.042;6.830;2024-02-26T06:39:27;7.45;;;4.93;;
35644;SDS011;21764;52.042;6.830;2024-02-26T06:44:28;8.13;;;5.30;;
35644;SDS011;21764;52.042;6.830;2024-02-26T06:49:32;7.18;;;5.68;;
35644;SDS011;21764;52.042;6.830;2024-02-26T06:54:33;6.97;;;4.93;;
35644;SDS011;21764;52.042;6.830;2024-02-26T06:59:34;5.68;;;4.65;;
35644;SDS011;21764;52.042;6.830;2024-02-26T07:04:34;6.80;;;4.97;;
35644;SDS011;21764;52.042;6.830;2024-02-26T07:09:37;7.63;;;4.57;;
35644;SDS011;21764;52.042;6.830;2024-02-26T07:14:38;7.38;;;4.80;;
35644;SDS011;21764;52.042;6.830;2024-02-26T07:19:39;5.40;;;4.57;;
35644;SDS011;21764;52.042;6.830;2024-02-26T07:24:40;6.05;;;4.78;;
35644;SDS011;21764;52.042;6.830;2024-02-26T07:29:41;6.28;;;3.90;;
35644;SDS011;21764;52.042;6.830;2024-02-26T07:34:42;8.80;;;5.63;;
35644;SDS011;21764;52.042;6.830;2024-02-26T07:39:44;5.05;;;3.78;;
35644;SDS011;21764;52.042;6.830;2024-02-26T07:44:45;5.90;;;4.97;;
35644;SDS011;21764;52.042;6.830;2024-02-26T07:49:46;10.07;;;5.07;;
35644;SDS011;21764;52.042;6.830;2024-02-26T07:54:47;6.88;;;5.30;;
35644;SDS011;21764;52.042;6.830;2024-02-26T07:59:48;8.73;;;5.13;;
35644;SDS011;21764;52.042;6.830;2024-02-26T08:04:49;9.43;;;6.10;;
35644;SDS011;21764;52.042;6.830;2024-02-26T08:09:50;9.65;;;5.53;;
35644;SDS011;21764;52.042;6.830;2024-02-26T08:14:52;8.57;;;5.18;;
35644;SDS011;21764;52.042;6.830;2024-02-26T08:19:53;5.18;;;3.97;;
35644;SDS011;21764;52.042;6.830;2024-02-26T08:24:54;7.43;;;5.13;;
35644;SDS011;21764;52.042;6.830;2024-02-26T08:29:55;7.18;;;5.85;;
35644;SDS011;21764;52.042;6.830;2024-02-26T08:34:56;14.65;;;9.00;;
35644;SDS011;21764;52.042;6.830;2024-02-26T08:39:57;11.07;;;7.82;;
35644;SDS011;21764;52.042;6.830;2024-02-26T08:44:58;11.10;;;7.18;;
35644;SDS011;21764;52.042;6.830;2024-02-26T08:50:01;10.82;;;7.60;;
35644;SDS011;21764;52.042;6.830;2024-02-26T08:55:02;9.70;;;7.30;;
35644;SDS011;21764;52.042;6.830;2024-02-26T09:00:03;11.93;;;9.02;;
35644;SDS011;21764;52.042;6.830;2024-02-26T09:05:05;13.00;;;8.13;;
35644;SDS011;21764;52.042;6.830;2024-02-26T09:10:06;14.02;;;8.02;;
35644;SDS011;21764;52.042;6.830;2024-02-26T09:15:10;9.52;;;7.57;;
35644;SDS011;21764;52.042;6.830;2024-02-26T09:20:11;9.73;;;7.53;;
35644;SDS011;21764;52.042;6.830;2024-02-26T09:25:13;12.25;;;8.52;;
35644;SDS011;21764;52.042;6.830;2024-02-26T09:30:18;13.77;;;9.13;;
35644;SDS011;21764;52.042;6.830;2024-02-26T09:35:19;13.27;;;10.13;;
35644;SDS011;21764;52.042;6.830;2024-02-26T09:40:21;12.43;;;7.95;;
35644;SDS011;21764;52.042;6.830;2024-02-26T09:45:22;16.38;;;10.07;;
35644;SDS011;21764;52.042;6.830;2024-02-26T09:50:25;13.65;;;9.50;;
35644;SDS011;21764;52.042;6.830;2024-02-26T09:55:26;13.55;;;9.95;;
35644;SDS011;21764;52.042;6.830;2024-02-26T10:00:27;14.38;;;9.70;;
35644;SDS011;21764;52.042;6.830;2024-02-26T10:05:33;13.90;;;9.63;;
35644;SDS011;21764;52.042;6.830;2024-02-26T10:10:35;15.07;;;10.63;;
35644;SDS011;21764;52.042;6.830;2024-02-26T10:15:37;15.70;;;11.27;;
35644;SDS011;21764;52.042;6.830;2024-02-26T10:20:38;18.38;;;11.52;;
35644;SDS011;21764;52.042;6.830;2024-02-26T10:25:48;16.55;;;9.65;;
35644;SDS011;21764;52.042;6.830;2024-02-26T10:30:53;15.67;;;10.80;;
35644;SDS011;21764;52.042;6.830;2024-02-26T10:35:54;16.58;;;11.80;;
35644;SDS011;21764;52.042;6.830;2024-02-26T10:40:55;17.35;;;10.63;;
35644;SDS011;21764;52.042;6.830;2024-02-26T10:45:57;15.13;;;10.18;;
35644;SDS011;21764;52.042;6.830;2024-02-26T10:50:58;20.77;;;13.45;;
35644;SDS011;21764;52.042;6.830;2024-02-26T10:56:02;22.52;;;11.00;;
35644;SDS011;21764;52.042;6.830;2024-02-26T11:01:04;26.58;;;14.27;;
35644;SDS011;21764;52.042;6.830;2024-02-26T11:06:06;21.15;;;13.02;;
35644;SDS011;21764;52.042;6.830;2024-02-26T11:11:07;23.10;;;12.77;;
35644;SDS011;21764;52.042;6.830;2024-02-26T11:16:08;26.10;;;14.95;;
35644;SDS011;21764;52.042;6.830;2024-02-26T11:21:11;24.35;;;15.55;;
35644;SDS011;21764;52.042;6.830;2024-02-26T11:26:12;24.17;;;14.63;;
35644;SDS011;21764;52.042;6.830;2024-02-26T11:31:14;27.58;;;18.55;;
35644;SDS011;21764;52.042;6.830;2024-02-26T11:36:15;36.58;;;20.10;;
35644;SDS011;21764;52.042;6.830;2024-02-26T11:41:18;29.83;;;16.80;;
35644;SDS011;21764;52.042;6.830;2024-02-26T11:46:32;32.45;;;18.75;;
35644;SDS011;21764;52.042;6.830;2024-02-26T11:51:34;31.17;;;17.73;;
35644;SDS011;21764;52.042;6.830;2024-02-26T11:56:35;34.08;;;19.77;;
35644;SDS011;21764;52.042;6.830;2024-02-26T12:01:42;31.25;;;17.92;;
35644;SDS011;21764;52.042;6.830;2024-02-26T12:06:47;34.55;;;19.70;;
35644;SDS011;21764;52.042;6.830;2024-02-26T12:11:48;37.15;;;19.85;;
35644;SDS011;21764;52.042;6.830;2024-02-26T12:16:49;34.03;;;20.27;;
35644;SDS011;21764;52.042;6.830;2024-02-26T12:21:51;35.05;;;19.85;;
35644;SDS011;21764;52.042;6.830;2024-02-26T12:26:55;34.83;;;19.92;;
35644;SDS011;21764;52.042;6.830;2024-02-26T12:31:58;31.42;;;19.42;;
35644;SDS011;21764;52.042;6.830;2024-02-26T12:36:59;32.70;;;18.42;;
35644;SDS011;21764;52.042;6.830;2024-02-26T12:42:00;39.33;;;20.75;;
35644;SDS011;21764;52.042;6.830;2024-02-26T12:47:02;33.08;;;18.98;;
35644;SDS011;21764;52.042;6.830;2024-02-26T12:52:04;30.13;;;18.52;;
35644;SDS011;21764;52.042;6.830;2024-02-26T12:57:06;27.58;;;17.50;;
35644;SDS011;21764;52.042;6.830;2024-02-26T13:02:07;28.27;;;15.80;;
35644;SDS011;21764;52.042;6.830;2024-02-26T13:07:09;31.00;;;16.90;;
35644;SDS011;21764;52.042;6.830;2024-02-26T13:12:10;30.35;;;15.48;;
35644;SDS011;21764;52.042;6.830;2024-02-26T13:17:14;29.40;;;16.63;;
35644;SDS011;21764;52.042;6.830;2024-02-26T13:22:15;26.98;;;16.60;;
35644;SDS011;21764;52.042;6.830;2024-02-26T13:27:20;25.65;;;15.27;;
35644;SDS011;21764;52.042;6.830;2024-02-26T13:32:21;24.48;;;15.30;;
35644;SDS011;21764;52.042;6.830;2024-02-26T13:37:22;22.92;;;14.90;;
35644;SDS011;21764;52.042;6.830;2024-02-26T13:42:23;22.95;;;14.45;;
35644;SDS011;21764;52.042;6.830;2024-02-26T13:47:24;30.77;;;18.00;;
35644;SDS011;21764;52.042;6.830;2024-02-26T13:52:25;29.88;;;15.90;;
35644;SDS011;21764;52.042;6.830;2024-02-26T13:57:27;26.35;;;15.95;;
35644;SDS011;21764;52.042;6.830;2024-02-26T14:02:28;26.17;;;15.88;;
35644;SDS011;21764;52.042;6.830;2024-02-26T14:07:29;22.02;;;14.18;;
35644;SDS011;21764;52.042;6.830;2024-02-26T14:12:32;24.55;;;15.32;;
35644;SDS011;21764;52.042;6.830;2024-02-26T14:17:33;22.35;;;15.77;;
35644;SDS011;21764;52.042;6.830;2024-02-26T14:22:34;21.20;;;14.95;;
35644;SDS011;21764;52.042;6.830;2024-02-26T14:27:35;23.67;;;15.13;;
35644;SDS011;21764;52.042;6.830;2024-02-26T14:32:36;24.45;;;14.07;;
35644;SDS011;21764;52.042;6.830;2024-02-26T14:37:37;20.33;;;13.25;;
35644;SDS011;21764;52.042;6.830;2024-02-26T14:42:39;19.75;;;14.07;;
35644;SDS011;21764;52.042;6.830;2024-02-26T14:47:40;20.73;;;14.68;;
35644;SDS011;21764;52.042;6.830;2024-02-26T14:52:41;18.80;;;13.55;;
35644;SDS011;21764;52.042;6.830;2024-02-26T14:57:42;18.55;;;13.27;;
35644;SDS011;21764;52.042;6.830;2024-02-26T15:02:43;22.05;;;15.98;;
35644;SDS011;21764;52.042;6.830;2024-02-26T15:07:44;21.52;;;14.05;;
35644;SDS011;21764;52.042;6.830;2024-02-26T15:12:45;23.17;;;15.57;;
35644;SDS011;21764;52.042;6.830;2024-02-26T15:17:47;24.23;;;16.58;;
35644;SDS011;21764;52.042;6.830;2024-02-26T15:22:51;26.33;;;17.33;;
35644;SDS011;21764;52.042;6.830;2024-02-26T15:27:52;25.23;;;16.40;;
35644;SDS011;21764;52.042;6.830;2024-02-26T15:32:53;24.45;;;16.73;;
35644;SDS011;21764;52.042;6.830;2024-02-26T15:37:54;24.35;;;16.23;;
35644;SDS011;21764;52.042;6.830;2024-02-26T15:42:55;25.38;;;15.82;;
35644;SDS011;21764;52.042;6.830;2024-02-26T15:47:56;22.92;;;14.95;;
35644;SDS011;21764;52.042;6.830;2024-02-26T15:52:58;20.20;;;14.27;;
35644;SDS011;21764;52.042;6.830;2024-02-26T15:57:59;22.25;;;14.57;;
35644;SDS011;21764;52.042;6.830;2024-02-26T16:03:00;25.42;;;14.65;;
35644;SDS011;21764;52.042;6.830;2024-02-26T16:08:06;31.15;;;19.40;;
35644;SDS011;21764;52.042;6.830;2024-02-26T16:13:08;25.80;;;16.27;;
35644;SDS011;21764;52.042;6.830;2024-02-26T16:18:09;23.23;;;12.90;;
35644;SDS011;21764;52.042;6.830;2024-02-26T16:23:11;23.23;;;15.82;;
35644;SDS011;21764;52.042;6.830;2024-02-26T16:28:12;20.63;;;13.55;;
35644;SDS011;21764;52.042;6.830;2024-02-26T16:33:13;27.98;;;16.83;;
35644;SDS011;21764;52.042;6.830;2024-02-26T16:38:14;24.02;;;14.75;;
35644;SDS011;21764;52.042;6.830;2024-02-26T16:43:15;24.48;;;15.70;;
35644;SDS011;21764;52.042;6.830;2024-02-26T16:48:17;29.20;;;17.40;;
35644;SDS011;21764;52.042;6.830;2024-02-26T16:53:18;26.42;;;17.08;;
35644;SDS011;21764;52.042;6.830;2024-02-26T16:58:19;29.73;;;17.95;;
35644;SDS011;21764;52.042;6.830;2024-02-26T17:03:23;26.40;;;17.35;;
35644;SDS011;21764;52.042;6.830;2024-02-26T17:08:24;28.35;;;17.88;;
35644;SDS011;21764;52.042;6.830;2024-02-26T17:13:26;40.65;;;21.95;;
35644;SDS011;21764;52.042;6.830;2024-02-26T17:23:31;32.03;;;22.48;;
35644;SDS011;21764;52.042;6.830;2024-02-26T17:28:33;25.17;;;16.58;;
35644;SDS011;21764;52.042;6.830;2024-02-26T17:33:39;27.27;;;18.25;;
35644;SDS011;21764;52.042;6.830;2024-02-26T17:38:40;32.25;;;18.77;;
35644;SDS011;21764;52.042;6.830;2024-02-26T17:43:42;28.85;;;19.90;;
35644;SDS011;21764;52.042;6.830;2024-02-26T17:48:43;29.92;;;19.52;;
35644;SDS011;21764;52.042;6.830;2024-02-26T17:53:45;34.97;;;20.70;;
35644;SDS011;21764;52.042;6.830;2024-02-26T17:58:46;31.88;;;21.05;;
35644;SDS011;21764;52.042;6.830;2024-02-26T18:03:48;30.23;;;19.85;;
35644;SDS011;21764;52.042;6.830;2024-02-26T18:08:50;31.95;;;20.17;;
35644;SDS011;21764;52.042;6.830;2024-02-26T18:13:52;34.70;;;22.40;;
35644;SDS011;21764;52.042;6.830;2024-02-26T18:18:53;35.35;;;22.50;;
35644;SDS011;21764;52.042;6.830;2024-02-26T18:23:54;37.67;;;25.05;;
35644;SDS011;21764;52.042;6.830;2024-02-26T18:28:55;39.85;;;23.65;;
35644;SDS011;21764;52.042;6.830;2024-02-26T18:33:56;39.17;;;23.23;;
35644;SDS011;21764;52.042;6.830;2024-02-26T18:38:57;39.53;;;25.20;;
35644;SDS011;21764;52.042;6.830;2024-02-26T18:43:58;39.70;;;25.85;;
35644;SDS011;21764;52.042;6.830;2024-02-26T18:49:00;45.42;;;25.65;;
35644;SDS011;21764;52.042;6.830;2024-02-26T18:54:01;44.22;;;29.38;;
35644;SDS011;21764;52.042;6.830;2024-02-26T18:59:02;43.65;;;28.95;;
35644;SDS011;21764;52.042;6.830;2024-02-26T19:04:03;48.92;;;31.88;;
35644;SDS011;21764;52.042;6.830;2024-02-26T19:09:04;45.15;;;28.25;;
35644;SDS011;21764;52.042;6.830;2024-02-26T19:14:06;50.05;;;28.95;;
35644;SDS011;21764;52.042;6.830;2024-02-26T19:19:07;52.88;;;31.85;;
35644;SDS011;21764;52.042;6.830;2024-02-26T19:24:09;53.38;;;34.58;;
35644;SDS011;21764;52.042;6.830;2024-02-26T19:29:10;54.42;;;30.17;;
35644;SDS011;21764;52.042;6.830;2024-02-26T19:34:11;52.53;;;32.30;;
35644;SDS011;21764;52.042;6.830;2024-02-26T19:39:12;58.78;;;32.38;;
35644;SDS011;21764;52.042;6.830;2024-02-26T19:44:13;54.00;;;32.72;;
35644;SDS011;21764;52.042;6.830;2024-02-26T19:49:14;63.88;;;36.03;;
35644;SDS011;21764;52.042;6.830;2024-02-26T19:54:15;53.88;;;32.25;;
35644;SDS011;21764;52.042;6.830;2024-02-26T19:59:16;51.22;;;31.35;;
35644;SDS011;21764;52.042;6.830;2024-02-26T20:04:19;48.63;;;30.40;;
35644;SDS011;21764;52.042;6.830;2024-02-26T20:09:20;49.55;;;28.92;;
35644;SDS011;21764;52.042;6.830;2024-02-26T20:14:22;50.13;;;33.25;;
35644;SDS011;21764;52.042;6.830;2024-02-26T20:19:24;51.50;;;29.52;;
35644;SDS011;21764;52.042;6.830;2024-02-26T20:24:25;54.05;;;30.63;;
35644;SDS011;21764;52.042;6.830;2024-02-26T20:29:26;49.47;;;30.50;;
35644;SDS011;21764;52.042;6.830;2024-02-26T20:34:27;49.65;;;30.50;;
35644;SDS011;21764;52.042;6.830;2024-02-26T20:39:28;48.72;;;29.95;;
35644;SDS011;21764;52.042;6.830;2024-02-26T20:44:29;48.80;;;28.10;;
35644;SDS011;21764;52.042;6.830;2024-02-26T20:49:31;48.85;;;28.55;;
35644;SDS011;21764;52.042;6.830;2024-02-26T20:54:32;54.95;;;31.92;;
35644;SDS011;21764;52.042;6.830;2024-02-26T20:59:33;49.20;;;30.67;;
35644;SDS011;21764;52.042;6.830;2024-02-26T21:04:34;46.20;;;27.42;;
35644;SDS011;21764;52.042;6.830;2024-02-26T21:09:35;51.35;;;27.95;;
35644;SDS011;21764;52.042;6.830;2024-02-26T21:14:36;48.75;;;28.35;;
35644;SDS011;21764;52.042;6.830;2024-02-26T21:19:37;46.63;;;26.75;;
35644;SDS011;21764;52.042;6.830;2024-02-26T21:24:38;49.72;;;26.15;;
35644;SDS011;21764;52.042;6.830;2024-02-26T21:29:39;51.80;;;28.42;;
35644;SDS011;21764;52.042;6.830;2024-02-26T21:34:40;49.05;;;28.52;;
35644;SDS011;21764;52.042;6.830;2024-02-26T21:39:41;48.22;;;28.17;;
35644;SDS011;21764;52.042;6.830;2024-02-26T21:44:43;46.83;;;29.02;;
35644;SDS011;21764;52.042;6.830;2024-02-26T21:49:44;50.55;;;31.02;;
35644;SDS011;21764;52.042;6.830;2024-02-26T21:54:48;47.58;;;26.75;;
35644;SDS011;21764;52.042;6.830;2024-02-26T21:59:50;48.83;;;27.15;;
35644;SDS011;21764;52.042;6.830;2024-02-26T22:04:51;45.15;;;26.17;;
35644;SDS011;21764;52.042;6.830;2024-02-26T22:09:53;47.78;;;28.55;;
35644;SDS011;21764;52.042;6.830;2024-02-26T22:14:54;49.60;;;27.58;;
35644;SDS011;21764;52.042;6.830;2024-02-26T22:19:56;48.35;;;27.17;;
35644;SDS011;21764;52.042;6.830;2024-02-26T22:24:57;47.72;;;28.05;;
35644;SDS011;21764;52.042;6.830;2024-02-26T22:29:58;46.10;;;24.40;;
35644;SDS011;21764;52.042;6.830;2024-02-26T22:34:59;49.65;;;26.55;;
35644;SDS011;21764;52.042;6.830;2024-02-26T22:40:00;49.60;;;27.52;;
35644;SDS011;21764;52.042;6.830;2024-02-26T22:45:01;44.47;;;25.92;;
35644;SDS011;21764;52.042;6.830;2024-02-26T22:50:03;43.78;;;24.27;;
35644;SDS011;21764;52.042;6.830;2024-02-26T22:55:04;43.17;;;24.42;;
35644;SDS011;21764;52.042;6.830;2024-02-26T23:00:05;45.90;;;27.20;;
35644;SDS011;21764;52.042;6.830;2024-02-26T23:05:21;44.22;;;26.58;;
35644;SDS011;21764;52.042;6.830;2024-02-26T23:10:22;46.05;;;26.88;;
35644;SDS011;21764;52.042;6.830;2024-02-26T23:15:24;48.53;;;26.63;;
35644;SDS011;21764;52.042;6.830;2024-02-26T23:20:26;46.10;;;24.42;;
35644;SDS011;21764;52.042;6.830;2024-02-26T23:25:27;45.63;;;25.90;;
35644;SDS011;21764;52.042;6.830;2024-02-26T23:30:28;45.05;;;24.50;;
35644;SDS011;21764;52.042;6.830;2024-02-26T23:35:29;42.67;;;23.17;;
35644;SDS011;21764;52.042;6.830;2024-02-26T23:40:30;47.30;;;26.08;;
35644;SDS011;21764;52.042;6.830;2024-02-26T23:45:33;43.25;;;25.77;;
35644;SDS011;21764;52.042;6.830;2024-02-26T23:50:34;47.08;;;26.23;;
35644;SDS011;21764;52.042;6.830;2024-02-26T23:55:35;42.60;;;25.92;;
